Linwood, Massachusetts
Current Conditions -  °F | °C
As of 10:15 AM on Thursday 18 Dec 2014 (Local Time) from KSFZ Reporting Station
Scattered Clouds Scattered Clouds  
Wind Chill: 30°   Ceiling: Unl
Heat Index: 39°   Visibility: 10mi
Dew Point: 25°   Wind: 20mph
Humidity: 56%   Direction: 290°WNW
Pressure: 29.8"   Gusts: 30mph
Location:  42.1°N, 71.65°W
Report Text: KSFZ 181515Z 29017G26KT 10SM SCT031 04/M04 A2980 RMK AO1
Loading
Personal Weather Stations






























Interactive Weather Map New forecast layout! Learn more

10-Day Weather Forecast

Advertisements
Track Severe Weather on mobile